Time;durP1;ratioP1;P1;durP2;ratioP2;P2;SDS_P1;SDS_P2;PMS_P1;PMS_P2;Temp;Humidity;BMP_temperature;BMP_pressure;BME280_temperature;BME280_humidity;BME280_pressure;Samples;Min_cycle;Max_cycle;Signal;HPM_P1;HPM_P2
2023/10/15 00:07:25;;;;;;;12.30;4.30;;;;;;;10.03;82.21;98244.20;436300;1248;108649;-42
2023/10/15 00:17:30;;;;;;;7.80;4.30;;;;;;;10.11;82.46;98252.71;436381;1261;99253;-42
2023/10/15 00:57:56;;;;;;;12.90;4.10;;;;;;;9.55;82.13;98224.38;436327;1261;107622;-42
2023/10/15 01:18:07;;;;;;;7.80;2.60;;;;;;;9.47;82.63;98241.95;435302;1254;113358;-41
2023/10/15 01:58:31;;;;;;;9.10;3.10;;;;;;;8.71;82.46;98260.22;435621;1253;98034;-42
2023/10/15 02:18:44;;;;;;;20.20;6.60;;;;;;;8.49;81.84;98254.80;435413;1254;108513;-42
2023/10/15 02:28:53;;;;;;;10.10;3.30;;;;;;;8.17;81.64;98265.63;435324;1255;99241;-42
2023/10/15 02:38:56;;;;;;;12.80;3.60;;;;;;;8.15;82.13;98269.88;435280;1251;107502;-42
2023/10/15 02:48:59;;;;;;;11.50;3.70;;;;;;;8.11;82.27;98270.00;435197;1253;99341;-42
2023/10/15 02:59:08;;;;;;;15.80;4.40;;;;;;;7.95;82.23;98275.50;435369;1253;111672;-43
2023/10/15 03:09:11;;;;;;;9.10;3.00;;;;;;;7.78;81.99;98274.86;435193;1272;107848;-43
2023/10/15 03:29:23;;;;;;;10.40;2.30;;;;;;;7.56;82.42;98291.85;435326;1250;108198;-42
2023/10/15 03:49:30;;;;;;;6.40;2.10;;;;;;;7.45;82.63;98291.89;435421;1252;111855;-43
2023/10/15 04:39:53;;;;;;;15.60;2.40;;;;;;;6.74;82.51;98282.27;435352;1253;111174;-42
2023/10/15 05:00:25;;;;;;;4.10;1.60;;;;;;;6.70;82.60;98299.34;435315;1254;99218;-42
2023/10/15 05:10:28;;;;;;;7.70;1.80;;;;;;;6.67;82.61;98299.25;435335;1253;107220;-41
2023/10/15 05:20:33;;;;;;;9.60;2.80;;;;;;;6.59;82.89;98316.50;435415;1250;98003;-42
2023/10/15 06:00:52;;;;;;;11.30;2.60;;;;;;;6.89;82.82;98352.91;435429;1249;107699;-41
2023/10/15 06:10:57;;;;;;;7.70;4.00;;;;;;;7.13;83.12;98359.45;435247;1253;98903;-40
2023/10/15 06:51:12;;;;;;;12.90;3.00;;;;;;;8.71;81.80;98382.00;435410;1253;108188;-42
2023/10/15 07:01:16;;;;;;;8.80;1.50;;;;;;;8.85;81.65;98379.18;435219;1249;99759;-42
2023/10/15 07:11:19;;;;;;;6.50;2.10;;;;;;;9.16;81.40;98384.33;435293;1254;110830;-43
2023/10/15 07:21:26;;;;;;;12.40;1.90;;;;;;;9.78;81.41;98387.73;435339;1254;109296;-42
2023/10/15 07:31:29;;;;;;;8.50;2.10;;;;;;;10.35;80.77;98386.60;435282;1254;99252;-41
2023/10/15 07:41:32;;;;;;;9.70;1.50;;;;;;;11.34;80.50;98387.28;435381;1252;108074;-41
2023/10/15 07:51:36;;;;;;;8.00;2.20;;;;;;;11.97;77.76;98380.63;435571;1253;98807;-42
2023/10/15 08:02:07;;;;;;;8.70;1.50;;;;;;;11.90;75.90;98381.60;435312;1249;112477;-42
2023/10/15 08:22:13;;;;;;;11.40;2.30;;;;;;;11.50;73.46;98390.41;435357;1251;99243;-43
2023/10/15 08:32:17;;;;;;;8.10;2.00;;;;;;;11.63;73.24;98386.80;435386;1253;109420;-42
2023/10/15 08:42:20;;;;;;;10.60;1.80;;;;;;;12.00;71.68;98384.77;435456;1254;99078;-42
2023/10/15 08:52:23;;;;;;;12.40;2.80;;;;;;;11.89;70.43;98381.63;435538;1251;111810;-42
2023/10/15 09:12:31;;;;;;;14.70;2.00;;;;;;;11.21;69.34;98378.93;435421;1252;99237;-41
2023/10/15 09:22:34;;;;;;;12.20;2.10;;;;;;;10.99;68.56;98373.59;435260;1254;107021;-42
2023/10/15 09:32:40;;;;;;;3.80;1.60;;;;;;;11.02;67.47;98377.45;435242;1250;99247;-42
2023/10/15 10:03:07;;;;;;;8.20;1.40;;;;;;;10.96;66.25;98381.31;435387;1250;99212;-43
2023/10/15 10:13:44;;;;;;;12.50;2.90;;;;;;;11.03;66.01;98372.06;435470;1252;108646;-42
2023/10/15 10:23:50;;;;;;;4.00;1.30;;;;;;;11.06;65.43;98372.16;435272;1250;99285;-42
2023/10/15 10:44:04;;;;;;;8.60;1.60;;;;;;;11.04;65.24;98355.79;435302;1250;106999;-42
2023/10/15 10:54:28;;;;;;;7.40;1.20;;;;;;;11.26;65.43;98349.99;435352;1251;97951;-42
2023/10/15 11:04:32;;;;;;;6.10;1.20;;;;;;;11.34;64.94;98347.54;435457;1253;107623;-42
2023/10/15 11:14:40;;;;;;;4.60;1.60;;;;;;;10.99;64.49;98348.30;435377;1253;97925;-42
2023/10/15 11:24:48;;;;;;;4.90;1.60;;;;;;;10.76;64.78;98359.00;435338;1253;111850;-41
2023/10/15 11:34:51;;;;;;;10.50;2.00;;;;;;;10.99;64.51;98347.22;435083;1251;108156;-41
2023/10/15 11:44:57;;;;;;;9.40;1.80;;;;;;;11.61;63.80;98332.09;435387;1249;98167;-42
2023/10/15 11:55:04;;;;;;;7.00;1.70;;;;;;;11.52;63.09;98326.46;435400;1254;107966;-41
2023/10/15 12:05:09;;;;;;;12.80;5.70;;;;;;;11.77;62.45;98322.69;435342;1253;99337;-41
2023/10/15 12:25:19;;;;;;;8.00;1.60;;;;;;;11.86;61.07;98313.26;435202;1253;107918;-42
2023/10/15 12:35:23;;;;;;;4.90;1.20;;;;;;;12.02;60.62;98313.39;435372;1249;99438;-42
2023/10/15 12:45:27;;;;;;;5.90;1.50;;;;;;;11.80;59.87;98309.83;435136;1252;371824;-42
2023/10/15 12:55:31;;;;;;;6.70;1.20;;;;;;;11.58;59.64;98296.95;435431;1250;99237;-42
2023/10/15 13:25:40;;;;;;;10.00;1.60;;;;;;;10.90;57.99;98305.81;435422;1251;99310;-41
2023/10/15 13:35:45;;;;;;;5.20;1.60;;;;;;;10.93;58.57;98297.98;435316;1254;107335;-41
2023/10/15 13:45:48;;;;;;;5.90;1.70;;;;;;;11.05;59.51;98290.28;435633;1250;99240;-42
2023/10/15 13:55:52;;;;;;;7.60;2.20;;;;;;;11.03;59.08;98287.82;435222;1253;111506;-42
2023/10/15 14:05:59;;;;;;;6.70;1.90;;;;;;;11.18;59.50;98281.40;435383;1256;108854;-42
2023/10/15 14:26:12;;;;;;;6.20;2.10;;;;;;;11.02;59.61;98288.29;435281;1253;108645;-42
2023/10/15 14:36:15;;;;;;;6.00;1.80;;;;;;;10.74;59.76;98287.88;435247;1250;98062;-41
2023/10/15 14:46:20;;;;;;;11.90;3.70;;;;;;;10.58;60.43;98299.39;435309;1250;112658;-42
2023/10/15 14:56:26;;;;;;;5.20;1.60;;;;;;;10.43;60.66;98307.70;435232;1254;107936;-41
2023/10/15 15:06:30;;;;;;;6.70;2.00;;;;;;;10.22;60.70;98313.61;435317;1250;99113;-42
2023/10/15 15:16:34;;;;;;;4.20;1.70;;;;;;;9.99;61.09;98317.52;435317;1256;108508;-42
2023/10/15 15:26:38;;;;;;;8.70;1.70;;;;;;;9.64;61.66;98326.13;435294;1256;99937;-43
2023/10/15 15:36:43;;;;;;;6.60;2.00;;;;;;;9.25;62.25;98327.00;435278;1250;111605;-41
2023/10/15 15:46:50;;;;;;;21.40;6.80;;;;;;;9.23;63.04;98339.30;435109;1256;99200;-41
2023/10/15 15:56:54;;;;;;;12.60;5.10;;;;;;;9.05;63.83;98366.23;435207;1256;99323;-42
2023/10/15 16:06:57;;;;;;;9.50;3.70;;;;;;;8.69;64.49;98376.64;435018;1250;112934;-42
2023/10/15 16:17:01;;;;;;;3.10;1.30;;;;;;;8.41;64.92;98382.19;435319;1250;107368;-42
2023/10/15 16:27:04;;;;;;;11.50;4.30;;;;;;;8.02;65.23;98392.45;435326;1250;99343;-42
2023/10/15 16:47:12;;;;;;;16.70;7.10;;;;;;;7.35;66.33;98414.07;435084;1256;99231;-42
2023/10/15 16:57:16;;;;;;;11.70;6.70;;;;;;;7.14;66.64;98433.84;435320;1256;110865;-42
2023/10/15 17:07:20;;;;;;;11.00;6.90;;;;;;;7.05;67.29;98449.25;435320;1264;107672;-42
2023/10/15 17:17:23;;;;;;;10.30;6.00;;;;;;;6.95;67.91;98462.95;435184;1254;99269;-43
2023/10/15 17:27:28;;;;;;;11.10;5.00;;;;;;;7.02;68.71;98466.42;435419;1254;108153;-41
2023/10/15 17:37:32;;;;;;;12.50;4.90;;;;;;;7.10;68.81;98468.41;435163;1257;98817;-43
2023/10/15 17:57:43;;;;;;;10.40;5.10;;;;;;;7.22;69.51;98471.77;435320;1256;109340;-42
2023/10/15 18:17:50;;;;;;;10.00;3.50;;;;;;;6.87;70.30;98486.08;435330;1254;108076;-43
2023/10/15 18:27:57;;;;;;;20.40;9.80;;;;;;;6.65;70.63;98492.27;435283;1249;99340;-42
2023/10/15 18:48:03;;;;;;;10.00;5.10;;;;;;;6.40;70.90;98514.96;435354;1264;107309;-43
2023/10/15 19:08:10;;;;;;;33.40;18.00;;;;;;;6.12;71.51;98522.84;435439;1250;107713;-42
2023/10/15 19:18:13;;;;;;;16.50;9.60;;;;;;;5.94;71.77;98525.94;435139;1253;99221;-43
2023/10/15 19:28:17;;;;;;;6.50;3.70;;;;;;;5.88;71.97;98542.45;435362;1256;110768;-42
2023/10/15 19:38:20;;;;;;;8.30;4.40;;;;;;;5.83;72.56;98552.17;435621;1254;107953;-43
2023/10/15 19:48:24;;;;;;;10.20;4.00;;;;;;;5.69;72.74;98563.38;435384;1251;98664;-42
2023/10/15 19:58:28;;;;;;;4.00;2.30;;;;;;;5.65;73.15;98567.75;435271;1253;108223;-42
2023/10/15 20:08:32;;;;;;;4.80;2.10;;;;;;;5.62;73.21;98570.21;435408;1251;99259;-42
2023/10/15 20:18:35;;;;;;;7.20;2.90;;;;;;;5.56;73.44;98579.90;435248;1254;111541;-42
2023/10/15 20:38:46;;;;;;;10.00;3.30;;;;;;;5.59;73.89;98609.43;435344;1254;99227;-41
2023/10/15 20:48:49;;;;;;;7.60;3.10;;;;;;;5.44;73.90;98613.48;435330;1253;108781;-43
2023/10/15 20:58:54;;;;;;;9.30;3.20;;;;;;;5.42;74.05;98616.17;435339;1253;99935;-43
2023/10/15 21:08:57;;;;;;;5.50;2.00;;;;;;;5.41;74.07;98611.52;435282;1254;111001;-42
2023/10/15 21:19:04;;;;;;;7.50;3.90;;;;;;;5.51;74.53;98618.66;435395;1263;107638;-42
2023/10/15 21:29:08;;;;;;;8.00;3.20;;;;;;;5.43;74.76;98618.88;435288;1251;99103;-42
2023/10/15 21:49:15;;;;;;;3.70;2.20;;;;;;;5.37;74.96;98618.40;435413;1254;99234;-42
2023/10/15 21:59:22;;;;;;;6.60;3.10;;;;;;;5.35;75.32;98615.09;435324;1250;110904;-41
2023/10/15 22:19:29;;;;;;;10.20;3.90;;;;;;;5.09;75.54;98603.09;435525;1254;99211;-42
2023/10/15 22:29:35;;;;;;;10.50;3.80;;;;;;;5.06;75.81;98610.79;435319;1254;110650;-43
2023/10/15 22:39:46;;;;;;;6.60;2.90;;;;;;;5.03;76.09;98615.17;435162;1254;99212;-43
2023/10/15 22:59:54;;;;;;;7.10;3.50;;;;;;;4.78;76.99;98625.06;435348;1254;108117;-42
2023/10/15 23:09:58;;;;;;;6.20;2.60;;;;;;;4.74;77.02;98632.09;435348;1250;99381;-42
2023/10/15 23:30:21;;;;;;;11.20;2.50;;;;;;;4.81;77.53;98643.27;435380;1251;99356;-42
2023/10/15 23:40:25;;;;;;;4.10;2.70;;;;;;;4.84;77.80;98646.21;435328;1250;111619;-43
